sensor_id;sensor_type;location;lat;lon;timestamp;P1;durP1;ratioP1;P2;durP2;ratioP2
25341;SDS011;13298;48.792;9.154;2023-03-20T00:03:50;3.72;;;2.65;;
25341;SDS011;13298;48.792;9.154;2023-03-20T00:06:23;4.05;;;3.00;;
25341;SDS011;13298;48.792;9.154;2023-03-20T00:08:53;4.47;;;2.33;;
25341;SDS011;13298;48.792;9.154;2023-03-20T00:11:24;5.30;;;2.65;;
25341;SDS011;13298;48.792;9.154;2023-03-20T00:13:53;3.17;;;2.63;;
25341;SDS011;13298;48.792;9.154;2023-03-20T00:16:24;3.50;;;2.78;;
25341;SDS011;13298;48.792;9.154;2023-03-20T00:18:55;4.43;;;3.00;;
25341;SDS011;13298;48.792;9.154;2023-03-20T00:21:22;5.50;;;3.22;;
25341;SDS011;13298;48.792;9.154;2023-03-20T00:23:48;4.68;;;2.88;;
25341;SDS011;13298;48.792;9.154;2023-03-20T00:26:15;4.85;;;2.58;;
25341;SDS011;13298;48.792;9.154;2023-03-20T00:28:44;3.60;;;2.90;;
25341;SDS011;13298;48.792;9.154;2023-03-20T00:33:56;2.58;;;2.38;;
25341;SDS011;13298;48.792;9.154;2023-03-20T00:36:27;3.20;;;2.38;;
25341;SDS011;13298;48.792;9.154;2023-03-20T00:38:53;2.83;;;2.10;;
25341;SDS011;13298;48.792;9.154;2023-03-20T00:44:05;1.92;;;1.73;;
25341;SDS011;13298;48.792;9.154;2023-03-20T00:46:42;3.42;;;1.58;;
25341;SDS011;13298;48.792;9.154;2023-03-20T00:49:13;2.08;;;1.67;;
25341;SDS011;13298;48.792;9.154;2023-03-20T00:51:39;4.38;;;2.00;;
25341;SDS011;13298;48.792;9.154;2023-03-20T00:54:12;4.22;;;1.63;;
25341;SDS011;13298;48.792;9.154;2023-03-20T00:56:41;2.22;;;1.33;;
25341;SDS011;13298;48.792;9.154;2023-03-20T00:59:40;2.58;;;1.40;;
25341;SDS011;13298;48.792;9.154;2023-03-20T01:02:31;1.52;;;1.42;;
25341;SDS011;13298;48.792;9.154;2023-03-20T01:04:57;2.67;;;1.65;;
25341;SDS011;13298;48.792;9.154;2023-03-20T01:07:24;1.95;;;1.42;;
25341;SDS011;13298;48.792;9.154;2023-03-20T01:09:51;1.40;;;1.30;;
25341;SDS011;13298;48.792;9.154;2023-03-20T01:12:17;1.90;;;1.55;;
25341;SDS011;13298;48.792;9.154;2023-03-20T01:14:42;1.73;;;1.35;;
25341;SDS011;13298;48.792;9.154;2023-03-20T01:17:14;1.27;;;1.17;;
25341;SDS011;13298;48.792;9.154;2023-03-20T01:19:47;2.00;;;1.50;;
25341;SDS011;13298;48.792;9.154;2023-03-20T01:22:14;1.88;;;1.45;;
25341;SDS011;13298;48.792;9.154;2023-03-20T01:24:41;1.50;;;1.40;;
25341;SDS011;13298;48.792;9.154;2023-03-20T01:27:11;2.53;;;1.42;;
25341;SDS011;13298;48.792;9.154;2023-03-20T01:29:39;2.53;;;1.55;;
25341;SDS011;13298;48.792;9.154;2023-03-20T01:32:08;1.88;;;1.40;;
25341;SDS011;13298;48.792;9.154;2023-03-20T01:34:40;1.50;;;1.40;;
25341;SDS011;13298;48.792;9.154;2023-03-20T01:37:11;1.80;;;1.52;;
25341;SDS011;13298;48.792;9.154;2023-03-20T01:39:48;3.45;;;1.60;;
25341;SDS011;13298;48.792;9.154;2023-03-20T01:42:14;2.85;;;1.70;;
25341;SDS011;13298;48.792;9.154;2023-03-20T01:44:41;2.33;;;1.65;;
25341;SDS011;13298;48.792;9.154;2023-03-20T01:47:20;2.05;;;1.60;;
25341;SDS011;13298;48.792;9.154;2023-03-20T01:52:54;1.73;;;1.30;;
25341;SDS011;13298;48.792;9.154;2023-03-20T01:55:43;2.13;;;1.60;;
25341;SDS011;13298;48.792;9.154;2023-03-20T01:58:12;1.85;;;1.42;;
25341;SDS011;13298;48.792;9.154;2023-03-20T02:00:45;1.20;;;1.10;;
25341;SDS011;13298;48.792;9.154;2023-03-20T02:03:13;1.92;;;1.30;;
25341;SDS011;13298;48.792;9.154;2023-03-20T02:05:41;1.25;;;1.15;;
25341;SDS011;13298;48.792;9.154;2023-03-20T02:08:27;1.50;;;1.40;;
25341;SDS011;13298;48.792;9.154;2023-03-20T02:10:55;1.90;;;1.40;;
25341;SDS011;13298;48.792;9.154;2023-03-20T02:13:25;2.40;;;1.23;;
25341;SDS011;13298;48.792;9.154;2023-03-20T02:15:54;1.38;;;1.10;;
25341;SDS011;13298;48.792;9.154;2023-03-20T02:18:38;3.10;;;1.10;;
25341;SDS011;13298;48.792;9.154;2023-03-20T02:35:46;0.88;;;0.70;;
25341;SDS011;13298;48.792;9.154;2023-03-20T02:38:55;1.02;;;0.80;;
25341;SDS011;13298;48.792;9.154;2023-03-20T02:46:49;1.33;;;0.98;;
25341;SDS011;13298;48.792;9.154;2023-03-20T02:50:14;1.10;;;0.88;;
25341;SDS011;13298;48.792;9.154;2023-03-20T02:52:55;1.35;;;0.77;;
25341;SDS011;13298;48.792;9.154;2023-03-20T03:01:16;0.43;;;0.40;;
25341;SDS011;13298;48.792;9.154;2023-03-20T03:03:49;0.65;;;0.57;;
25341;SDS011;13298;48.792;9.154;2023-03-20T03:06:22;0.98;;;0.77;;
25341;SDS011;13298;48.792;9.154;2023-03-20T03:09:05;0.60;;;0.60;;
25341;SDS011;13298;48.792;9.154;2023-03-20T03:11:37;0.80;;;0.60;;
25341;SDS011;13298;48.792;9.154;2023-03-20T03:14:14;0.68;;;0.50;;
25341;SDS011;13298;48.792;9.154;2023-03-20T03:16:48;1.13;;;0.70;;
25341;SDS011;13298;48.792;9.154;2023-03-20T03:19:20;0.63;;;0.52;;
25341;SDS011;13298;48.792;9.154;2023-03-20T03:21:48;0.50;;;0.50;;
25341;SDS011;13298;48.792;9.154;2023-03-20T03:24:28;0.55;;;0.47;;
25341;SDS011;13298;48.792;9.154;2023-03-20T03:27:00;1.30;;;0.55;;
25341;SDS011;13298;48.792;9.154;2023-03-20T03:29:30;0.70;;;0.50;;
25341;SDS011;13298;48.792;9.154;2023-03-20T03:32:01;0.57;;;0.55;;
25341;SDS011;13298;48.792;9.154;2023-03-20T03:34:30;0.73;;;0.47;;
25341;SDS011;13298;48.792;9.154;2023-03-20T03:39:56;0.70;;;0.57;;
25341;SDS011;13298;48.792;9.154;2023-03-20T03:42:56;1.23;;;0.50;;
25341;SDS011;13298;48.792;9.154;2023-03-20T03:46:00;0.40;;;0.40;;
25341;SDS011;13298;48.792;9.154;2023-03-20T03:48:38;0.30;;;0.30;;
25341;SDS011;13298;48.792;9.154;2023-03-20T03:51:10;1.27;;;0.50;;
25341;SDS011;13298;48.792;9.154;2023-03-20T03:53:44;0.35;;;0.35;;
25341;SDS011;13298;48.792;9.154;2023-03-20T03:56:19;0.52;;;0.50;;
25341;SDS011;13298;48.792;9.154;2023-03-20T03:58:50;0.40;;;0.40;;
25341;SDS011;13298;48.792;9.154;2023-03-20T04:01:20;0.38;;;0.38;;
25341;SDS011;13298;48.792;9.154;2023-03-20T04:03:51;0.63;;;0.50;;
25341;SDS011;13298;48.792;9.154;2023-03-20T04:06:21;1.15;;;0.50;;
25341;SDS011;13298;48.792;9.154;2023-03-20T04:08:47;0.55;;;0.50;;
25341;SDS011;13298;48.792;9.154;2023-03-20T04:11:14;0.32;;;0.32;;
25341;SDS011;13298;48.792;9.154;2023-03-20T04:13:46;0.80;;;0.50;;
25341;SDS011;13298;48.792;9.154;2023-03-20T04:16:14;0.52;;;0.50;;
25341;SDS011;13298;48.792;9.154;2023-03-20T04:18:41;0.60;;;0.50;;
25341;SDS011;13298;48.792;9.154;2023-03-20T04:21:08;0.60;;;0.40;;
25341;SDS011;13298;48.792;9.154;2023-03-20T04:23:34;0.93;;;0.60;;
25341;SDS011;13298;48.792;9.154;2023-03-20T04:26:00;0.82;;;0.57;;
25341;SDS011;13298;48.792;9.154;2023-03-20T04:28:26;0.93;;;0.60;;
25341;SDS011;13298;48.792;9.154;2023-03-20T04:30:52;0.40;;;0.40;;
25341;SDS011;13298;48.792;9.154;2023-03-20T04:33:23;0.63;;;0.40;;
25341;SDS011;13298;48.792;9.154;2023-03-20T04:35:50;0.57;;;0.50;;
25341;SDS011;13298;48.792;9.154;2023-03-20T04:38:16;0.57;;;0.50;;
25341;SDS011;13298;48.792;9.154;2023-03-20T04:40:43;0.50;;;0.50;;
25341;SDS011;13298;48.792;9.154;2023-03-20T04:43:10;1.00;;;0.52;;
25341;SDS011;13298;48.792;9.154;2023-03-20T04:45:36;1.27;;;0.60;;
25341;SDS011;13298;48.792;9.154;2023-03-20T04:48:02;0.40;;;0.40;;
25341;SDS011;13298;48.792;9.154;2023-03-20T04:50:28;0.47;;;0.47;;
25341;SDS011;13298;48.792;9.154;2023-03-20T04:52:54;0.50;;;0.43;;
25341;SDS011;13298;48.792;9.154;2023-03-20T04:55:20;0.38;;;0.38;;
25341;SDS011;13298;48.792;9.154;2023-03-20T04:57:46;0.50;;;0.50;;
25341;SDS011;13298;48.792;9.154;2023-03-20T05:00:12;0.50;;;0.50;;
25341;SDS011;13298;48.792;9.154;2023-03-20T05:02:39;0.82;;;0.40;;
25341;SDS011;13298;48.792;9.154;2023-03-20T05:05:04;0.50;;;0.50;;
25341;SDS011;13298;48.792;9.154;2023-03-20T05:07:31;0.90;;;0.60;;
25341;SDS011;13298;48.792;9.154;2023-03-20T05:09:57;0.50;;;0.50;;
25341;SDS011;13298;48.792;9.154;2023-03-20T05:12:23;0.40;;;0.40;;
25341;SDS011;13298;48.792;9.154;2023-03-20T05:14:51;1.88;;;0.60;;
25341;SDS011;13298;48.792;9.154;2023-03-20T05:17:19;0.40;;;0.40;;
25341;SDS011;13298;48.792;9.154;2023-03-20T05:19:45;0.63;;;0.43;;
25341;SDS011;13298;48.792;9.154;2023-03-20T05:22:11;0.70;;;0.50;;
25341;SDS011;13298;48.792;9.154;2023-03-20T05:24:37;0.65;;;0.65;;
25341;SDS011;13298;48.792;9.154;2023-03-20T05:27:03;0.60;;;0.60;;
25341;SDS011;13298;48.792;9.154;2023-03-20T05:29:29;0.70;;;0.60;;
25341;SDS011;13298;48.792;9.154;2023-03-20T05:31:55;0.43;;;0.43;;
25341;SDS011;13298;48.792;9.154;2023-03-20T05:34:20;0.50;;;0.50;;
25341;SDS011;13298;48.792;9.154;2023-03-20T05:36:46;0.60;;;0.60;;
25341;SDS011;13298;48.792;9.154;2023-03-20T05:39:12;0.50;;;0.50;;
25341;SDS011;13298;48.792;9.154;2023-03-20T05:41:37;0.90;;;0.65;;
25341;SDS011;13298;48.792;9.154;2023-03-20T05:44:03;0.70;;;0.60;;
25341;SDS011;13298;48.792;9.154;2023-03-20T05:46:29;0.98;;;0.50;;
25341;SDS011;13298;48.792;9.154;2023-03-20T05:48:55;0.50;;;0.50;;
25341;SDS011;13298;48.792;9.154;2023-03-20T05:51:21;0.47;;;0.47;;
25341;SDS011;13298;48.792;9.154;2023-03-20T05:53:46;2.22;;;0.70;;
25341;SDS011;13298;48.792;9.154;2023-03-20T05:56:12;0.55;;;0.50;;
25341;SDS011;13298;48.792;9.154;2023-03-20T05:58:38;3.60;;;0.52;;
25341;SDS011;13298;48.792;9.154;2023-03-20T06:01:04;0.77;;;0.70;;
25341;SDS011;13298;48.792;9.154;2023-03-20T06:03:30;1.92;;;0.60;;
25341;SDS011;13298;48.792;9.154;2023-03-20T06:05:56;1.15;;;0.80;;
25341;SDS011;13298;48.792;9.154;2023-03-20T06:08:21;0.70;;;0.70;;
25341;SDS011;13298;48.792;9.154;2023-03-20T06:10:49;1.45;;;0.80;;
25341;SDS011;13298;48.792;9.154;2023-03-20T06:13:15;3.03;;;0.80;;
25341;SDS011;13298;48.792;9.154;2023-03-20T06:15:41;1.10;;;1.00;;
25341;SDS011;13298;48.792;9.154;2023-03-20T06:18:07;1.58;;;1.00;;
25341;SDS011;13298;48.792;9.154;2023-03-20T06:20:33;1.02;;;0.93;;
25341;SDS011;13298;48.792;9.154;2023-03-20T06:22:58;1.70;;;1.00;;
25341;SDS011;13298;48.792;9.154;2023-03-20T06:25:24;0.63;;;0.60;;
25341;SDS011;13298;48.792;9.154;2023-03-20T06:27:50;1.15;;;0.77;;
25341;SDS011;13298;48.792;9.154;2023-03-20T06:30:16;1.10;;;0.68;;
25341;SDS011;13298;48.792;9.154;2023-03-20T06:32:41;0.90;;;0.68;;
25341;SDS011;13298;48.792;9.154;2023-03-20T06:35:08;1.40;;;0.73;;
25341;SDS011;13298;48.792;9.154;2023-03-20T06:37:34;0.90;;;0.80;;
25341;SDS011;13298;48.792;9.154;2023-03-20T06:40:01;0.90;;;0.80;;
25341;SDS011;13298;48.792;9.154;2023-03-20T06:42:28;4.68;;;0.82;;
25341;SDS011;13298;48.792;9.154;2023-03-20T06:44:54;2.10;;;0.82;;
25341;SDS011;13298;48.792;9.154;2023-03-20T06:47:20;1.98;;;1.10;;
25341;SDS011;13298;48.792;9.154;2023-03-20T06:49:47;2.75;;;0.90;;
25341;SDS011;13298;48.792;9.154;2023-03-20T06:52:14;1.52;;;0.98;;
25341;SDS011;13298;48.792;9.154;2023-03-20T06:54:42;0.88;;;0.70;;
25341;SDS011;13298;48.792;9.154;2023-03-20T06:57:08;1.33;;;0.90;;
25341;SDS011;13298;48.792;9.154;2023-03-20T06:59:34;0.93;;;0.60;;
25341;SDS011;13298;48.792;9.154;2023-03-20T07:02:00;1.42;;;0.85;;
25341;SDS011;13298;48.792;9.154;2023-03-20T07:04:27;1.17;;;0.90;;
25341;SDS011;13298;48.792;9.154;2023-03-20T07:06:52;2.28;;;1.30;;
25341;SDS011;13298;48.792;9.154;2023-03-20T07:09:18;2.28;;;1.15;;
25341;SDS011;13298;48.792;9.154;2023-03-20T07:11:46;1.42;;;1.33;;
25341;SDS011;13298;48.792;9.154;2023-03-20T07:14:12;1.90;;;1.20;;
25341;SDS011;13298;48.792;9.154;2023-03-20T07:16:38;2.03;;;1.10;;
25341;SDS011;13298;48.792;9.154;2023-03-20T07:19:04;1.90;;;1.25;;
25341;SDS011;13298;48.792;9.154;2023-03-20T07:21:30;1.77;;;1.10;;
25341;SDS011;13298;48.792;9.154;2023-03-20T07:23:56;1.40;;;1.02;;
25341;SDS011;13298;48.792;9.154;2023-03-20T07:26:22;1.70;;;1.10;;
25341;SDS011;13298;48.792;9.154;2023-03-20T07:28:47;3.00;;;1.10;;
25341;SDS011;13298;48.792;9.154;2023-03-20T07:31:18;1.85;;;1.20;;
25341;SDS011;13298;48.792;9.154;2023-03-20T07:33:46;2.95;;;1.10;;
25341;SDS011;13298;48.792;9.154;2023-03-20T07:36:12;1.60;;;1.00;;
25341;SDS011;13298;48.792;9.154;2023-03-20T07:38:38;1.35;;;1.15;;
25341;SDS011;13298;48.792;9.154;2023-03-20T07:41:04;1.73;;;1.15;;
25341;SDS011;13298;48.792;9.154;2023-03-20T07:43:31;1.77;;;1.27;;
25341;SDS011;13298;48.792;9.154;2023-03-20T07:45:56;1.67;;;1.05;;
25341;SDS011;13298;48.792;9.154;2023-03-20T07:48:22;3.35;;;1.27;;
25341;SDS011;13298;48.792;9.154;2023-03-20T07:50:48;2.85;;;1.40;;
25341;SDS011;13298;48.792;9.154;2023-03-20T07:53:13;4.00;;;1.05;;
25341;SDS011;13298;48.792;9.154;2023-03-20T07:55:39;1.00;;;0.90;;
25341;SDS011;13298;48.792;9.154;2023-03-20T07:58:05;1.17;;;1.02;;
25341;SDS011;13298;48.792;9.154;2023-03-20T08:00:32;1.45;;;1.13;;
25341;SDS011;13298;48.792;9.154;2023-03-20T08:02:58;2.08;;;1.15;;
25341;SDS011;13298;48.792;9.154;2023-03-20T08:05:23;1.60;;;1.38;;
25341;SDS011;13298;48.792;9.154;2023-03-20T08:07:49;1.70;;;1.08;;
25341;SDS011;13298;48.792;9.154;2023-03-20T08:10:15;1.35;;;0.98;;
25341;SDS011;13298;48.792;9.154;2023-03-20T08:12:41;2.00;;;1.23;;
25341;SDS011;13298;48.792;9.154;2023-03-20T08:15:07;1.30;;;1.10;;
25341;SDS011;13298;48.792;9.154;2023-03-20T08:17:33;1.58;;;0.90;;
25341;SDS011;13298;48.792;9.154;2023-03-20T08:19:59;2.20;;;1.10;;
25341;SDS011;13298;48.792;9.154;2023-03-20T08:22:25;3.13;;;1.30;;
25341;SDS011;13298;48.792;9.154;2023-03-20T08:24:50;2.15;;;1.25;;
25341;SDS011;13298;48.792;9.154;2023-03-20T08:27:16;1.42;;;0.90;;
25341;SDS011;13298;48.792;9.154;2023-03-20T08:29:42;2.38;;;1.10;;
25341;SDS011;13298;48.792;9.154;2023-03-20T08:32:07;1.55;;;1.20;;
25341;SDS011;13298;48.792;9.154;2023-03-20T08:34:33;1.67;;;0.98;;
25341;SDS011;13298;48.792;9.154;2023-03-20T08:37:01;1.83;;;1.10;;
25341;SDS011;13298;48.792;9.154;2023-03-20T08:39:29;1.67;;;1.00;;
25341;SDS011;13298;48.792;9.154;2023-03-20T08:41:54;0.98;;;0.85;;
25341;SDS011;13298;48.792;9.154;2023-03-20T08:44:20;2.35;;;1.08;;
25341;SDS011;13298;48.792;9.154;2023-03-20T08:46:46;1.58;;;1.10;;
25341;SDS011;13298;48.792;9.154;2023-03-20T08:49:12;1.08;;;0.90;;
25341;SDS011;13298;48.792;9.154;2023-03-20T08:51:38;1.10;;;0.85;;
25341;SDS011;13298;48.792;9.154;2023-03-20T08:54:03;1.10;;;0.80;;
25341;SDS011;13298;48.792;9.154;2023-03-20T08:56:30;1.90;;;0.85;;
25341;SDS011;13298;48.792;9.154;2023-03-20T08:58:55;1.50;;;0.80;;
25341;SDS011;13298;48.792;9.154;2023-03-20T09:01:21;1.33;;;1.00;;
25341;SDS011;13298;48.792;9.154;2023-03-20T09:03:47;1.23;;;0.88;;
25341;SDS011;13298;48.792;9.154;2023-03-20T09:06:13;1.15;;;1.00;;
25341;SDS011;13298;48.792;9.154;2023-03-20T09:08:38;2.90;;;1.10;;
25341;SDS011;13298;48.792;9.154;2023-03-20T09:11:04;0.98;;;0.80;;
25341;SDS011;13298;48.792;9.154;2023-03-20T09:13:31;0.82;;;0.73;;
25341;SDS011;13298;48.792;9.154;2023-03-20T09:15:56;2.28;;;0.85;;
25341;SDS011;13298;48.792;9.154;2023-03-20T09:18:22;2.45;;;0.70;;
25341;SDS011;13298;48.792;9.154;2023-03-20T09:20:49;0.57;;;0.52;;
25341;SDS011;13298;48.792;9.154;2023-03-20T09:23:15;1.85;;;1.13;;
25341;SDS011;13298;48.792;9.154;2023-03-20T09:25:41;1.42;;;1.10;;
25341;SDS011;13298;48.792;9.154;2023-03-20T09:28:07;3.75;;;0.85;;
25341;SDS011;13298;48.792;9.154;2023-03-20T09:30:33;1.17;;;0.80;;
25341;SDS011;13298;48.792;9.154;2023-03-20T09:32:58;0.80;;;0.75;;
25341;SDS011;13298;48.792;9.154;2023-03-20T09:35:24;1.27;;;0.95;;
25341;SDS011;13298;48.792;9.154;2023-03-20T09:37:50;1.15;;;0.90;;
25341;SDS011;13298;48.792;9.154;2023-03-20T09:43:08;2.28;;;0.70;;
25341;SDS011;13298;48.792;9.154;2023-03-20T09:51:55;1.08;;;0.80;;
25341;SDS011;13298;48.792;9.154;2023-03-20T09:57:01;1.80;;;1.05;;
25341;SDS011;13298;48.792;9.154;2023-03-20T09:59:29;1.40;;;0.90;;
25341;SDS011;13298;48.792;9.154;2023-03-20T10:01:59;2.22;;;1.20;;
25341;SDS011;13298;48.792;9.154;2023-03-20T10:04:35;2.30;;;1.25;;
25341;SDS011;13298;48.792;9.154;2023-03-20T10:07:02;1.95;;;0.95;;
25341;SDS011;13298;48.792;9.154;2023-03-20T10:09:30;3.00;;;1.00;;
25341;SDS011;13298;48.792;9.154;2023-03-20T10:15:00;2.90;;;1.10;;
25341;SDS011;13298;48.792;9.154;2023-03-20T10:17:58;1.48;;;1.00;;
25341;SDS011;13298;48.792;9.154;2023-03-20T10:20:57;1.80;;;1.00;;
25341;SDS011;13298;48.792;9.154;2023-03-20T10:26:02;0.95;;;0.88;;
25341;SDS011;13298;48.792;9.154;2023-03-20T10:31:20;1.80;;;0.70;;
25341;SDS011;13298;48.792;9.154;2023-03-20T10:40:29;1.65;;;1.20;;
25341;SDS011;13298;48.792;9.154;2023-03-20T10:43:19;2.25;;;1.35;;
25341;SDS011;13298;48.792;9.154;2023-03-20T10:48:48;2.08;;;1.40;;
25341;SDS011;13298;48.792;9.154;2023-03-20T10:51:24;2.20;;;1.60;;
25341;SDS011;13298;48.792;9.154;2023-03-20T10:54:03;2.60;;;1.23;;
25341;SDS011;13298;48.792;9.154;2023-03-20T10:56:37;1.73;;;1.50;;
25341;SDS011;13298;48.792;9.154;2023-03-20T11:01:48;3.47;;;1.67;;
25341;SDS011;13298;48.792;9.154;2023-03-20T11:04:14;2.42;;;1.20;;
25341;SDS011;13298;48.792;9.154;2023-03-20T11:06:41;2.80;;;2.25;;
25341;SDS011;13298;48.792;9.154;2023-03-20T11:11:47;5.63;;;3.20;;
25341;SDS011;13298;48.792;9.154;2023-03-20T11:14:18;3.78;;;2.80;;
25341;SDS011;13298;48.792;9.154;2023-03-20T11:16:50;4.82;;;3.55;;
25341;SDS011;13298;48.792;9.154;2023-03-20T11:19:18;6.88;;;3.88;;
25341;SDS011;13298;48.792;9.154;2023-03-20T11:21:52;5.97;;;3.55;;
25341;SDS011;13298;48.792;9.154;2023-03-20T11:26:49;5.32;;;3.90;;
25341;SDS011;13298;48.792;9.154;2023-03-20T11:29:22;6.20;;;3.67;;
25341;SDS011;13298;48.792;9.154;2023-03-20T11:31:54;5.28;;;3.40;;
25341;SDS011;13298;48.792;9.154;2023-03-20T11:34:43;6.65;;;3.38;;
25341;SDS011;13298;48.792;9.154;2023-03-20T11:37:20;6.38;;;3.85;;
25341;SDS011;13298;48.792;9.154;2023-03-20T11:40:00;6.18;;;3.33;;
25341;SDS011;13298;48.792;9.154;2023-03-20T11:42:55;4.43;;;3.00;;
25341;SDS011;13298;48.792;9.154;2023-03-20T11:45:33;6.45;;;3.08;;
25341;SDS011;13298;48.792;9.154;2023-03-20T11:48:01;4.32;;;3.50;;
25341;SDS011;13298;48.792;9.154;2023-03-20T11:52:54;5.57;;;4.13;;
25341;SDS011;13298;48.792;9.154;2023-03-20T11:55:27;5.15;;;3.40;;
25341;SDS011;13298;48.792;9.154;2023-03-20T11:57:57;5.15;;;3.55;;
25341;SDS011;13298;48.792;9.154;2023-03-20T12:00:27;7.22;;;3.28;;
25341;SDS011;13298;48.792;9.154;2023-03-20T12:03:00;5.68;;;3.38;;
25341;SDS011;13298;48.792;9.154;2023-03-20T12:05:31;6.32;;;3.30;;
25341;SDS011;13298;48.792;9.154;2023-03-20T12:08:14;10.18;;;4.97;;
25341;SDS011;13298;48.792;9.154;2023-03-20T12:10:54;4.05;;;3.05;;
25341;SDS011;13298;48.792;9.154;2023-03-20T12:13:29;5.00;;;3.58;;
25341;SDS011;13298;48.792;9.154;2023-03-20T12:16:03;7.63;;;3.75;;
25341;SDS011;13298;48.792;9.154;2023-03-20T12:18:40;7.53;;;3.95;;
25341;SDS011;13298;48.792;9.154;2023-03-20T12:32:43;3.53;;;2.65;;
25341;SDS011;13298;48.792;9.154;2023-03-20T12:35:19;5.43;;;2.95;;
25341;SDS011;13298;48.792;9.154;2023-03-20T12:38:01;4.32;;;3.22;;
25341;SDS011;13298;48.792;9.154;2023-03-20T12:40:31;3.35;;;2.40;;
25341;SDS011;13298;48.792;9.154;2023-03-20T12:46:04;4.45;;;2.40;;
25341;SDS011;13298;48.792;9.154;2023-03-20T12:49:20;4.13;;;2.55;;
25341;SDS011;13298;48.792;9.154;2023-03-20T12:55:05;4.63;;;3.22;;
25341;SDS011;13298;48.792;9.154;2023-03-20T12:57:46;6.32;;;3.90;;
25341;SDS011;13298;48.792;9.154;2023-03-20T13:00:51;6.85;;;3.92;;
25341;SDS011;13298;48.792;9.154;2023-03-20T13:04:10;6.47;;;3.67;;
25341;SDS011;13298;48.792;9.154;2023-03-20T13:06:55;3.83;;;3.03;;
25341;SDS011;13298;48.792;9.154;2023-03-20T13:12:48;4.70;;;3.17;;
25341;SDS011;13298;48.792;9.154;2023-03-20T13:18:36;4.18;;;3.05;;
25341;SDS011;13298;48.792;9.154;2023-03-20T13:21:33;4.53;;;3.00;;
25341;SDS011;13298;48.792;9.154;2023-03-20T13:27:12;4.22;;;2.55;;
25341;SDS011;13298;48.792;9.154;2023-03-20T13:35:58;15.38;;;8.20;;
25341;SDS011;13298;48.792;9.154;2023-03-20T13:38:52;4.82;;;2.78;;
25341;SDS011;13298;48.792;9.154;2023-03-20T13:41:24;4.50;;;2.50;;
25341;SDS011;13298;48.792;9.154;2023-03-20T13:43:53;4.00;;;2.40;;
25341;SDS011;13298;48.792;9.154;2023-03-20T13:46:32;3.85;;;1.90;;
25341;SDS011;13298;48.792;9.154;2023-03-20T13:49:07;4.43;;;2.40;;
25341;SDS011;13298;48.792;9.154;2023-03-20T13:51:59;4.72;;;2.78;;
25341;SDS011;13298;48.792;9.154;2023-03-20T14:00:54;4.68;;;2.72;;
25341;SDS011;13298;48.792;9.154;2023-03-20T14:03:59;6.38;;;2.80;;
25341;SDS011;13298;48.792;9.154;2023-03-20T14:08:54;3.50;;;2.58;;
25341;SDS011;13298;48.792;9.154;2023-03-20T14:13:50;3.28;;;2.70;;
25341;SDS011;13298;48.792;9.154;2023-03-20T14:16:19;4.32;;;2.40;;
25341;SDS011;13298;48.792;9.154;2023-03-20T14:18:47;3.72;;;2.40;;
25341;SDS011;13298;48.792;9.154;2023-03-20T14:21:18;3.58;;;1.80;;
25341;SDS011;13298;48.792;9.154;2023-03-20T14:23:48;2.63;;;1.92;;
25341;SDS011;13298;48.792;9.154;2023-03-20T14:26:24;3.65;;;2.17;;
25341;SDS011;13298;48.792;9.154;2023-03-20T14:28:53;3.80;;;2.05;;
25341;SDS011;13298;48.792;9.154;2023-03-20T14:31:31;3.40;;;1.90;;
25341;SDS011;13298;48.792;9.154;2023-03-20T14:48:00;2.72;;;2.08;;
25341;SDS011;13298;48.792;9.154;2023-03-20T14:50:53;5.38;;;2.35;;
25341;SDS011;13298;48.792;9.154;2023-03-20T14:53:29;2.60;;;1.70;;
25341;SDS011;13298;48.792;9.154;2023-03-20T14:56:00;2.70;;;1.88;;
25341;SDS011;13298;48.792;9.154;2023-03-20T14:58:39;3.05;;;2.20;;
25341;SDS011;13298;48.792;9.154;2023-03-20T15:06:29;2.50;;;1.80;;
25341;SDS011;13298;48.792;9.154;2023-03-20T15:08:57;2.80;;;1.67;;
25341;SDS011;13298;48.792;9.154;2023-03-20T15:11:34;3.58;;;1.80;;
25341;SDS011;13298;48.792;9.154;2023-03-20T15:14:01;2.03;;;1.42;;
25341;SDS011;13298;48.792;9.154;2023-03-20T15:16:31;3.30;;;1.67;;
25341;SDS011;13298;48.792;9.154;2023-03-20T15:18:59;3.03;;;1.75;;
25341;SDS011;13298;48.792;9.154;2023-03-20T15:21:27;2.28;;;1.77;;
25341;SDS011;13298;48.792;9.154;2023-03-20T15:24:02;2.95;;;1.70;;
25341;SDS011;13298;48.792;9.154;2023-03-20T15:26:29;2.35;;;1.50;;
25341;SDS011;13298;48.792;9.154;2023-03-20T15:28:59;1.35;;;1.20;;
25341;SDS011;13298;48.792;9.154;2023-03-20T15:31:32;1.95;;;1.40;;
25341;SDS011;13298;48.792;9.154;2023-03-20T15:34:01;2.33;;;1.40;;
25341;SDS011;13298;48.792;9.154;2023-03-20T15:36:34;3.25;;;1.90;;
25341;SDS011;13298;48.792;9.154;2023-03-20T15:39:05;2.88;;;1.50;;
25341;SDS011;13298;48.792;9.154;2023-03-20T15:41:37;2.72;;;1.77;;
25341;SDS011;13298;48.792;9.154;2023-03-20T15:44:23;2.90;;;1.65;;
25341;SDS011;13298;48.792;9.154;2023-03-20T15:47:01;1.85;;;1.30;;
25341;SDS011;13298;48.792;9.154;2023-03-20T15:49:36;2.60;;;1.25;;
25341;SDS011;13298;48.792;9.154;2023-03-20T15:52:13;3.33;;;1.45;;
25341;SDS011;13298;48.792;9.154;2023-03-20T15:55:17;1.73;;;1.23;;
25341;SDS011;13298;48.792;9.154;2023-03-20T15:57:45;2.20;;;1.20;;
25341;SDS011;13298;48.792;9.154;2023-03-20T16:02:46;3.97;;;0.98;;
25341;SDS011;13298;48.792;9.154;2023-03-20T16:05:13;2.08;;;1.08;;
25341;SDS011;13298;48.792;9.154;2023-03-20T16:07:41;2.65;;;1.10;;
25341;SDS011;13298;48.792;9.154;2023-03-20T16:10:15;3.95;;;1.10;;
25341;SDS011;13298;48.792;9.154;2023-03-20T16:12:47;2.08;;;0.80;;
25341;SDS011;13298;48.792;9.154;2023-03-20T16:15:16;1.52;;;1.00;;
25341;SDS011;13298;48.792;9.154;2023-03-20T16:17:43;1.88;;;0.95;;
25341;SDS011;13298;48.792;9.154;2023-03-20T16:20:13;1.75;;;1.00;;
25341;SDS011;13298;48.792;9.154;2023-03-20T16:22:40;1.10;;;0.70;;
25341;SDS011;13298;48.792;9.154;2023-03-20T16:25:11;1.60;;;1.08;;
25341;SDS011;13298;48.792;9.154;2023-03-20T16:27:40;1.55;;;1.00;;
25341;SDS011;13298;48.792;9.154;2023-03-20T16:30:14;1.10;;;0.80;;
25341;SDS011;13298;48.792;9.154;2023-03-20T16:33:04;2.03;;;0.90;;
25341;SDS011;13298;48.792;9.154;2023-03-20T16:35:39;2.17;;;1.15;;
25341;SDS011;13298;48.792;9.154;2023-03-20T16:41:06;2.85;;;1.23;;
25341;SDS011;13298;48.792;9.154;2023-03-20T16:43:43;1.45;;;1.00;;
25341;SDS011;13298;48.792;9.154;2023-03-20T16:46:16;1.25;;;0.95;;
25341;SDS011;13298;48.792;9.154;2023-03-20T16:48:46;1.48;;;0.90;;
25341;SDS011;13298;48.792;9.154;2023-03-20T16:51:16;1.83;;;0.90;;
25341;SDS011;13298;48.792;9.154;2023-03-20T16:53:51;0.80;;;0.80;;
25341;SDS011;13298;48.792;9.154;2023-03-20T16:56:23;1.48;;;1.38;;
25341;SDS011;13298;48.792;9.154;2023-03-20T16:58:54;2.90;;;1.33;;
25341;SDS011;13298;48.792;9.154;2023-03-20T17:01:21;2.67;;;1.15;;
25341;SDS011;13298;48.792;9.154;2023-03-20T17:03:49;1.80;;;1.00;;
25341;SDS011;13298;48.792;9.154;2023-03-20T17:08:49;2.10;;;1.23;;
25341;SDS011;13298;48.792;9.154;2023-03-20T17:11:22;2.78;;;1.30;;
25341;SDS011;13298;48.792;9.154;2023-03-20T17:13:57;0.98;;;0.82;;
25341;SDS011;13298;48.792;9.154;2023-03-20T17:16:23;1.65;;;1.00;;
25341;SDS011;13298;48.792;9.154;2023-03-20T17:18:58;1.10;;;0.93;;
25341;SDS011;13298;48.792;9.154;2023-03-20T17:21:38;1.48;;;0.85;;
25341;SDS011;13298;48.792;9.154;2023-03-20T17:24:05;1.50;;;0.80;;
25341;SDS011;13298;48.792;9.154;2023-03-20T17:26:31;1.75;;;1.10;;
25341;SDS011;13298;48.792;9.154;2023-03-20T17:28:57;1.50;;;1.00;;
25341;SDS011;13298;48.792;9.154;2023-03-20T17:31:22;2.42;;;0.80;;
25341;SDS011;13298;48.792;9.154;2023-03-20T17:33:48;2.38;;;0.95;;
25341;SDS011;13298;48.792;9.154;2023-03-20T17:36:22;1.30;;;0.90;;
25341;SDS011;13298;48.792;9.154;2023-03-20T17:38:52;2.20;;;0.90;;
25341;SDS011;13298;48.792;9.154;2023-03-20T17:41:20;0.82;;;0.77;;
25341;SDS011;13298;48.792;9.154;2023-03-20T17:43:47;1.65;;;0.90;;